Time;durP1;ratioP1;P1;durP2;ratioP2;P2;SDS_P1;SDS_P2;PMS_P1;PMS_P2;Temp;Humidity;BMP_temperature;BMP_pressure;BME280_temperature;BME280_humidity;BME280_pressure;Samples;Min_cycle;Max_cycle;Signal;HPM_P1;HPM_P2
2024/02/11 00:02:24;;;;;;;19.92;14.93;;;9.70;86.20;;;;;;4976385;28;20490;-73
2024/02/11 00:04:50;;;;;;;17.50;15.27;;;9.70;85.90;;;;;;4976681;28;20114;-73
2024/02/11 00:07:15;;;;;;;17.42;14.23;;;9.70;85.90;;;;;;4976255;28;20053;-75
2024/02/11 00:09:41;;;;;;;17.85;14.10;;;9.70;85.80;;;;;;4976193;28;20034;-73
2024/02/11 00:12:08;;;;;;;16.70;13.98;;;9.70;85.90;;;;;;4981243;28;20027;-73
2024/02/11 00:14:33;;;;;;;15.88;13.50;;;9.70;85.90;;;;;;4975035;28;20023;-74
2024/02/11 00:16:59;;;;;;;15.65;13.95;;;9.70;86.00;;;;;;4975916;28;20412;-74
2024/02/11 00:19:29;;;;;;;16.50;13.80;;;9.70;86.00;;;;;;4976011;28;20106;-73
2024/02/11 00:21:55;;;;;;;17.50;13.48;;;9.80;85.90;;;;;;4976296;28;20019;-72
2024/02/11 00:24:23;;;;;;;17.42;13.45;;;9.80;86.00;;;;;;4975898;28;20034;-73
2024/02/11 00:26:49;;;;;;;17.98;14.15;;;9.80;86.10;;;;;;4975723;28;20015;-72
2024/02/11 00:29:14;;;;;;;20.15;14.43;;;9.80;86.10;;;;;;4975734;28;20034;-73
2024/02/11 00:31:40;;;;;;;19.08;14.70;;;9.80;86.10;;;;;;4974599;28;20025;-73
2024/02/11 00:34:05;;;;;;;17.73;14.60;;;9.80;86.20;;;;;;4975683;28;20143;-73
2024/02/11 00:36:33;;;;;;;17.20;13.85;;;9.80;86.20;;;;;;4975548;28;20116;-73
2024/02/11 00:38:59;;;;;;;16.85;13.73;;;9.80;86.30;;;;;;4975514;28;20014;-73
2024/02/11 00:41:24;;;;;;;18.13;14.60;;;9.80;86.20;;;;;;4975519;28;20029;-73
2024/02/11 00:43:50;;;;;;;18.63;15.57;;;9.80;86.20;;;;;;4975462;28;20392;-75
2024/02/11 00:46:16;;;;;;;18.45;15.13;;;9.80;86.30;;;;;;4975446;28;20138;-74
2024/02/11 00:48:44;;;;;;;16.17;14.15;;;9.80;86.30;;;;;;4973956;28;20457;-74
2024/02/11 00:51:10;;;;;;;17.45;14.15;;;9.80;86.40;;;;;;4975433;28;20074;-74
2024/02/11 00:53:36;;;;;;;17.42;13.50;;;9.80;86.40;;;;;;4975343;28;20023;-74
2024/02/11 00:56:02;;;;;;;16.02;13.98;;;9.80;86.40;;;;;;4975280;28;20019;-75
2024/02/11 00:58:28;;;;;;;17.90;13.32;;;9.80;86.50;;;;;;4975198;28;20023;-74
2024/02/11 01:00:53;;;;;;;17.77;13.60;;;9.70;86.60;;;;;;4974959;28;20027;-74
2024/02/11 01:03:19;;;;;;;15.30;12.05;;;9.70;86.80;;;;;;4975153;28;20534;-74
2024/02/11 01:05:44;;;;;;;12.77;10.65;;;9.70;86.80;;;;;;4973594;28;20117;-74
2024/02/11 01:08:13;;;;;;;15.02;12.43;;;9.60;86.50;;;;;;4974888;28;20121;-75
2024/02/11 01:10:38;;;;;;;14.80;11.70;;;9.60;86.60;;;;;;4975050;28;20062;-74
2024/02/11 01:13:04;;;;;;;12.27;10.25;;;9.50;86.90;;;;;;4974970;28;20026;-75
2024/02/11 01:15:30;;;;;;;12.00;9.55;;;9.60;86.70;;;;;;4974930;28;20066;-74
2024/02/11 01:17:55;;;;;;;12.63;9.73;;;9.50;86.50;;;;;;4974824;28;20023;-74
2024/02/11 01:20:21;;;;;;;11.32;9.00;;;9.50;86.80;;;;;;4974884;28;20098;-74
2024/02/11 01:22:47;;;;;;;9.98;8.68;;;9.50;86.80;;;;;;4974798;28;20023;-74
2024/02/11 01:25:17;;;;;;;11.18;8.65;;;9.40;87.00;;;;;;4957407;28;20105;-74
2024/02/11 01:27:45;;;;;;;9.43;7.75;;;9.40;87.00;;;;;;4973321;28;20046;-74
2024/02/11 01:30:10;;;;;;;8.13;5.45;;;9.30;87.80;;;;;;4974716;28;20026;-74
2024/02/11 01:32:36;;;;;;;7.13;5.35;;;9.30;87.20;;;;;;4974703;28;20030;-74
2024/02/11 01:35:02;;;;;;;5.55;3.88;;;9.30;87.00;;;;;;4974611;28;20484;-73
2024/02/11 01:37:27;;;;;;;5.57;3.65;;;9.20;86.80;;;;;;4974609;28;20042;-73
2024/02/11 01:39:53;;;;;;;5.43;4.25;;;9.20;86.80;;;;;;4974582;28;20027;-73
2024/02/11 01:42:18;;;;;;;5.65;4.72;;;9.10;87.10;;;;;;4957050;28;20122;-73
2024/02/11 01:44:44;;;;;;;7.15;5.70;;;9.10;87.70;;;;;;4957049;28;20023;-73
2024/02/11 01:47:09;;;;;;;9.18;6.75;;;9.00;87.60;;;;;;4972890;28;20035;-72
2024/02/11 01:49:36;;;;;;;13.65;8.75;;;9.00;87.80;;;;;;4973973;28;20118;-72
2024/02/11 01:52:01;;;;;;;15.45;8.23;;;9.00;87.10;;;;;;4973791;28;20030;-73
2024/02/11 01:54:30;;;;;;;10.13;6.72;;;8.90;87.00;;;;;;4956924;28;20031;-72
2024/02/11 01:56:56;;;;;;;5.25;3.55;;;9.00;87.00;;;;;;4974277;28;20026;-73
2024/02/11 01:59:22;;;;;;;3.50;1.98;;;8.80;85.90;;;;;;4973051;28;20050;-73
2024/02/11 02:01:48;;;;;;;4.72;2.78;;;8.70;85.50;;;;;;4974036;28;20476;-73
2024/02/11 02:04:15;;;;;;;0.65;0.52;;;8.50;86.40;;;;;;4974150;28;20038;-72
2024/02/11 02:06:40;;;;;;;1.65;1.05;;;8.40;84.80;;;;;;4974142;28;20379;-73
2024/02/11 02:09:10;;;;;;;0.75;0.17;;;8.40;84.90;;;;;;4974145;28;20046;-72
2024/02/11 02:11:36;;;;;;;0.47;0.40;;;8.30;84.50;;;;;;4974197;28;20635;-72
2024/02/11 02:14:02;;;;;;;0.32;0.10;;;8.10;85.60;;;;;;4973400;28;20117;-71
2024/02/11 02:16:27;;;;;;;1.08;0.30;;;8.10;85.70;;;;;;4973950;28;20555;-72
2024/02/11 02:18:54;;;;;;;1.20;0.20;;;8.10;85.90;;;;;;4974045;28;20476;-72
2024/02/11 02:21:24;;;;;;;0.10;0.10;;;8.10;85.60;;;;;;4974120;28;20059;-72
2024/02/11 02:23:50;;;;;;;0.35;0.17;;;7.90;84.00;;;;;;4974012;28;20086;-72
2024/02/11 02:26:16;;;;;;;0.43;0.28;;;7.80;85.00;;;;;;4973974;28;20027;-73
2024/02/11 02:28:41;;;;;;;0.20;0.10;;;7.80;85.10;;;;;;4973915;28;20042;-73
2024/02/11 02:31:07;;;;;;;3.60;0.52;;;7.70;85.30;;;;;;4973924;28;20030;-73
2024/02/11 02:33:33;;;;;;;0.80;0.20;;;7.80;85.50;;;;;;4973930;28;20487;-73
2024/02/11 02:35:59;;;;;;;0.32;0.10;;;7.60;85.40;;;;;;4973891;28;20058;-73
2024/02/11 02:38:24;;;;;;;0.38;0.20;;;7.40;83.60;;;;;;4973856;28;20518;-73
2024/02/11 02:40:51;;;;;;;0.30;0.15;;;7.20;83.80;;;;;;4973911;28;20022;-73
2024/02/11 02:43:17;;;;;;;1.08;0.20;;;7.20;84.80;;;;;;4973799;28;20030;-73
2024/02/11 02:45:43;;;;;;;0.35;0.00;;;7.20;84.00;;;;;;4973881;28;20026;-73
2024/02/11 02:48:09;;;;;;;0.13;0.00;;;7.20;83.70;;;;;;4973776;28;20392;-73
2024/02/11 02:50:34;;;;;;;0.35;0.00;;;7.10;83.80;;;;;;4972598;28;20034;-73
2024/02/11 02:53:00;;;;;;;1.98;0.10;;;7.00;84.70;;;;;;4973759;28;20434;-73
2024/02/11 02:55:26;;;;;;;0.30;0.30;;;6.90;84.60;;;;;;4973797;28;20027;-73
2024/02/11 02:57:51;;;;;;;0.15;0.00;;;6.90;85.00;;;;;;4973764;28;20027;-73
2024/02/11 03:00:18;;;;;;;0.28;0.00;;;6.90;84.70;;;;;;4973743;28;20058;-73
2024/02/11 03:02:45;;;;;;;0.00;0.00;;;6.90;84.80;;;;;;4973772;28;20034;-73
2024/02/11 03:05:10;;;;;;;0.20;0.10;;;6.90;84.80;;;;;;4973526;28;20107;-73
2024/02/11 03:07:40;;;;;;;0.10;0.00;;;6.90;84.90;;;;;;4972363;28;20432;-72
2024/02/11 03:10:06;;;;;;;0.85;0.17;;;6.90;85.00;;;;;;4973472;28;20026;-73
2024/02/11 03:12:32;;;;;;;5.90;3.63;;;6.80;84.50;;;;;;4973418;28;20019;-73
2024/02/11 03:14:57;;;;;;;12.75;9.18;;;6.80;84.60;;;;;;4973481;28;20037;-73
2024/02/11 03:17:23;;;;;;;0.77;0.75;;;6.90;85.00;;;;;;4973669;28;20539;-72
2024/02/11 03:19:48;;;;;;;0.68;0.10;;;6.80;84.90;;;;;;4973522;28;20424;-73
2024/02/11 03:22:14;;;;;;;2.47;0.10;;;6.90;84.90;;;;;;4973573;28;20038;-72
2024/02/11 03:24:40;;;;;;;0.47;0.35;;;6.80;85.00;;;;;;4975473;28;20023;-73
2024/02/11 03:27:07;;;;;;;0.10;0.10;;;6.80;84.30;;;;;;4976808;28;20022;-72
2024/02/11 03:29:35;;;;;;;0.38;0.10;;;6.70;84.00;;;;;;4975711;28;20090;-73
2024/02/11 03:32:01;;;;;;;0.10;0.03;;;6.50;83.90;;;;;;4976957;28;20027;-73
2024/02/11 03:34:27;;;;;;;0.15;0.03;;;6.30;84.00;;;;;;4976772;28;20107;-73
2024/02/11 03:36:52;;;;;;;0.17;0.00;;;6.20;85.10;;;;;;4976793;28;20027;-72
2024/02/11 03:39:19;;;;;;;0.05;0.05;;;6.10;86.10;;;;;;4976792;28;20035;-73
2024/02/11 03:41:45;;;;;;;0.70;0.28;;;5.90;85.50;;;;;;4976728;28;20376;-73
2024/02/11 03:44:10;;;;;;;0.25;0.10;;;5.90;85.90;;;;;;4976582;28;20059;-73
2024/02/11 03:46:36;;;;;;;0.10;0.08;;;6.00;84.40;;;;;;4976616;28;20023;-73
2024/02/11 03:49:02;;;;;;;0.88;0.00;;;5.90;84.10;;;;;;4976598;28;20031;-72
2024/02/11 03:51:28;;;;;;;0.00;0.00;;;5.80;83.10;;;;;;4976511;28;20023;-73
2024/02/11 03:53:53;;;;;;;0.22;0.00;;;5.70;83.20;;;;;;4976496;28;20110;-73
2024/02/11 03:56:22;;;;;;;0.00;0.00;;;5.70;82.20;;;;;;4976531;28;20046;-72
2024/02/11 03:58:49;;;;;;;0.00;0.00;;;5.60;82.90;;;;;;4976328;28;20026;-73
2024/02/11 04:01:18;;;;;;;0.10;0.00;;;5.60;83.40;;;;;;4975132;28;20034;-73
2024/02/11 04:03:44;;;;;;;1.55;0.17;;;5.60;82.70;;;;;;4976181;28;20484;-73
2024/02/11 04:06:11;;;;;;;0.30;0.03;;;5.70;83.50;;;;;;4976278;28;20050;-73
2024/02/11 04:08:41;;;;;;;0.08;0.05;;;5.80;83.50;;;;;;4974897;28;20038;-73
2024/02/11 04:11:07;;;;;;;0.03;0.03;;;5.80;82.80;;;;;;4976463;28;20073;-73
2024/02/11 04:13:33;;;;;;;0.00;0.00;;;5.80;80.90;;;;;;4976255;28;20026;-73
2024/02/11 04:16:05;;;;;;;0.10;0.10;;;5.80;81.50;;;;;;4976610;28;20050;-73
2024/02/11 04:18:32;;;;;;;0.00;0.00;;;5.80;81.20;;;;;;4977274;28;20023;-73
2024/02/11 04:20:59;;;;;;;0.10;0.10;;;5.80;81.00;;;;;;4974964;28;20408;-73
2024/02/11 04:23:25;;;;;;;0.00;0.00;;;5.90;81.30;;;;;;4980206;28;20027;-73
2024/02/11 04:25:52;;;;;;;0.10;0.10;;;5.80;79.80;;;;;;4975882;28;20031;-73
2024/02/11 04:28:20;;;;;;;0.10;0.00;;;5.70;80.90;;;;;;4975816;28;20042;-73
2024/02/11 04:30:46;;;;;;;0.00;0.00;;;5.50;79.50;;;;;;4974511;28;20123;-74
2024/02/11 04:33:20;;;;;;;0.10;0.10;;;5.60;80.00;;;;;;4975602;28;20127;-73
2024/02/11 04:35:46;;;;;;;0.32;0.10;;;5.60;80.10;;;;;;4975119;28;20026;-74
2024/02/11 04:38:12;;;;;;;0.13;0.10;;;5.60;80.80;;;;;;4975608;28;20427;-74
2024/02/11 04:40:40;;;;;;;0.10;0.10;;;5.70;80.90;;;;;;4975423;28;20023;-74
2024/02/11 04:43:06;;;;;;;0.00;0.00;;;5.70;81.00;;;;;;4975495;28;20041;-73
2024/02/11 04:45:33;;;;;;;0.00;0.00;;;5.70;81.20;;;;;;4975513;28;20098;-74
2024/02/11 04:48:00;;;;;;;0.00;0.00;;;5.70;79.90;;;;;;4975391;28;20089;-74
2024/02/11 04:50:27;;;;;;;0.00;0.00;;;5.80;79.50;;;;;;4975446;28;20041;-73
2024/02/11 04:52:55;;;;;;;0.08;0.08;;;5.70;78.70;;;;;;4975676;28;20050;-73
2024/02/11 04:55:24;;;;;;;0.00;0.00;;;5.70;79.00;;;;;;4975610;28;20058;-74
2024/02/11 04:57:51;;;;;;;0.03;0.00;;;5.70;80.30;;;;;;4975262;28;20030;-74
2024/02/11 05:00:26;;;;;;;0.10;0.10;;;5.80;79.70;;;;;;4975223;28;20026;-74
2024/02/11 05:03:06;;;;;;;0.00;0.00;;;5.90;80.10;;;;;;4975477;28;20049;-74
2024/02/11 05:05:32;;;;;;;0.10;0.10;;;5.90;79.80;;;;;;4975095;28;20107;-73
2024/02/11 05:08:03;;;;;;;0.32;0.20;;;6.00;79.40;;;;;;4974940;28;20046;-74
2024/02/11 05:10:33;;;;;;;0.30;0.30;;;6.00;79.50;;;;;;4975032;28;20046;-73
2024/02/11 05:13:04;;;;;;;0.10;0.10;;;6.10;79.60;;;;;;4975043;28;20433;-73
2024/02/11 05:15:43;;;;;;;0.22;0.15;;;6.10;78.30;;;;;;4974893;28;20057;-74
2024/02/11 05:18:15;;;;;;;0.30;0.22;;;6.10;78.00;;;;;;4975040;28;20035;-75
2024/02/11 05:20:41;;;;;;;1.85;0.47;;;6.00;77.70;;;;;;4974849;28;20423;-74
2024/02/11 05:23:10;;;;;;;0.32;0.32;;;6.00;78.20;;;;;;4974815;28;20031;-74
2024/02/11 05:25:43;;;;;;;1.10;0.63;;;6.00;78.50;;;;;;4974758;28;20556;-74
2024/02/11 05:28:11;;;;;;;0.40;0.40;;;6.00;78.10;;;;;;4974659;28;20039;-74
2024/02/11 05:30:45;;;;;;;0.55;0.50;;;5.90;78.20;;;;;;4974772;28;20019;-74
2024/02/11 05:33:18;;;;;;;0.63;0.52;;;5.90;77.80;;;;;;4974680;28;20023;-74
2024/02/11 05:35:44;;;;;;;0.50;0.50;;;6.00;78.20;;;;;;4957348;28;20026;-73
2024/02/11 05:38:11;;;;;;;0.80;0.50;;;6.00;78.80;;;;;;4974697;28;20054;-74
2024/02/11 05:40:41;;;;;;;0.60;0.55;;;6.00;79.00;;;;;;4974659;28;20027;-74
2024/02/11 05:43:08;;;;;;;0.82;0.82;;;6.00;79.00;;;;;;4974172;28;20027;-74
2024/02/11 05:45:35;;;;;;;1.10;0.88;;;6.00;78.20;;;;;;4974167;28;20154;-73
2024/02/11 05:48:01;;;;;;;0.95;0.80;;;6.10;78.60;;;;;;4973052;28;20027;-73
2024/02/11 05:50:27;;;;;;;1.88;0.90;;;6.10;78.50;;;;;;4974171;28;20464;-74
2024/02/11 05:52:56;;;;;;;0.85;0.70;;;6.00;78.40;;;;;;4973957;28;20395;-74
2024/02/11 05:55:22;;;;;;;0.80;0.80;;;6.10;79.00;;;;;;4973965;28;20109;-74
2024/02/11 05:57:49;;;;;;;1.08;0.82;;;6.10;78.10;;;;;;4974336;28;20170;-73
2024/02/11 06:00:19;;;;;;;1.67;1.00;;;6.10;77.60;;;;;;4974219;28;20106;-74
2024/02/11 06:02:47;;;;;;;1.48;1.23;;;6.10;78.70;;;;;;4974097;28;20108;-73
2024/02/11 06:05:14;;;;;;;1.20;1.10;;;6.10;77.20;;;;;;4974292;28;20034;-73
2024/02/11 06:07:50;;;;;;;1.52;1.20;;;6.10;77.70;;;;;;4974214;28;20484;-73
2024/02/11 06:10:19;;;;;;;1.42;1.33;;;6.10;77.70;;;;;;4974459;28;20062;-73
2024/02/11 06:12:46;;;;;;;1.45;1.30;;;6.10;78.00;;;;;;4973968;28;20416;-73
2024/02/11 06:15:20;;;;;;;1.85;1.65;;;6.10;77.50;;;;;;4973929;28;20110;-73
2024/02/11 06:17:48;;;;;;;3.03;1.40;;;6.00;78.30;;;;;;4956826;28;20476;-73
2024/02/11 06:20:17;;;;;;;2.35;1.90;;;6.10;78.10;;;;;;4974044;28;20094;-73
2024/02/11 06:22:44;;;;;;;3.15;1.85;;;6.10;78.30;;;;;;4974071;28;20414;-73
2024/02/11 06:25:13;;;;;;;2.85;1.98;;;6.00;78.10;;;;;;4974068;28;20034;-73
2024/02/11 06:27:40;;;;;;;2.63;1.90;;;6.10;78.40;;;;;;4974049;28;20035;-73
2024/02/11 06:30:14;;;;;;;2.22;1.90;;;6.20;78.50;;;;;;4973965;28;20031;-73
2024/02/11 06:32:41;;;;;;;3.63;1.77;;;6.10;78.30;;;;;;4974093;28;20053;-73
2024/02/11 06:35:09;;;;;;;3.22;2.60;;;6.00;78.20;;;;;;4973983;28;20035;-73
2024/02/11 06:37:35;;;;;;;3.13;2.55;;;5.90;78.80;;;;;;4974104;28;20495;-73
2024/02/11 06:40:01;;;;;;;4.78;2.47;;;5.90;79.10;;;;;;4976730;28;20031;-73
2024/02/11 06:42:30;;;;;;;4.78;2.58;;;5.90;79.50;;;;;;4974039;28;20380;-73
2024/02/11 06:44:56;;;;;;;8.93;3.15;;;5.90;79.60;;;;;;4973910;28;20076;-73
2024/02/11 06:47:22;;;;;;;5.38;3.20;;;5.90;80.40;;;;;;4973803;28;20427;-74
2024/02/11 06:49:48;;;;;;;8.98;3.53;;;6.00;78.70;;;;;;4973834;28;20031;-74
2024/02/11 06:52:13;;;;;;;7.47;4.18;;;6.10;78.80;;;;;;4973820;28;20046;-73
2024/02/11 06:54:39;;;;;;;6.22;3.65;;;6.10;78.20;;;;;;4973803;28;20382;-74
2024/02/11 06:57:07;;;;;;;6.82;3.55;;;6.10;78.30;;;;;;4973692;28;20029;-73
2024/02/11 06:59:33;;;;;;;6.03;3.63;;;6.10;78.80;;;;;;4975819;28;20034;-73
2024/02/11 07:02:00;;;;;;;3.60;3.05;;;6.20;78.50;;;;;;4960041;28;20019;-73
2024/02/11 07:04:27;;;;;;;6.25;3.42;;;6.20;78.00;;;;;;4960306;28;20031;-74
2024/02/11 07:06:53;;;;;;;5.07;3.10;;;6.30;78.10;;;;;;4960247;28;20110;-73
2024/02/11 07:09:22;;;;;;;6.43;3.42;;;6.20;78.80;;;;;;4977216;28;20138;-73
2024/02/11 07:11:49;;;;;;;5.53;3.17;;;6.20;78.60;;;;;;4977308;28;20089;-72
2024/02/11 07:14:18;;;;;;;8.00;3.58;;;6.30;78.70;;;;;;4977101;28;20496;-73
2024/02/11 07:16:45;;;;;;;6.20;3.20;;;6.30;79.00;;;;;;4977017;28;20118;-73
2024/02/11 07:19:12;;;;;;;10.38;3.47;;;6.40;78.80;;;;;;4977082;28;20033;-73
2024/02/11 07:21:39;;;;;;;5.53;3.47;;;6.40;79.10;;;;;;4976876;28;20027;-73
2024/02/11 07:24:06;;;;;;;5.40;3.33;;;6.30;78.40;;;;;;4976886;28;20022;-73
2024/02/11 07:26:32;;;;;;;6.00;3.50;;;6.20;78.90;;;;;;4977277;28;20030;-72
2024/02/11 07:28:58;;;;;;;4.72;3.15;;;6.20;78.80;;;;;;4959335;28;20042;-73
2024/02/11 07:31:23;;;;;;;7.60;3.50;;;6.20;78.40;;;;;;4959932;28;20499;-73
2024/02/11 07:33:49;;;;;;;6.68;3.45;;;6.30;78.90;;;;;;4977005;28;20038;-72
2024/02/11 07:36:18;;;;;;;6.30;3.33;;;6.30;78.70;;;;;;4976934;28;20392;-74
2024/02/11 07:38:44;;;;;;;9.80;3.75;;;6.30;78.70;;;;;;4977193;28;20030;-74
2024/02/11 07:41:11;;;;;;;8.60;4.10;;;6.30;78.70;;;;;;4977101;28;20034;-73
2024/02/11 07:43:38;;;;;;;8.88;4.32;;;6.30;79.40;;;;;;4977200;28;20109;-73
2024/02/11 07:46:05;;;;;;;8.35;3.97;;;6.40;78.60;;;;;;4976828;28;20019;-73
2024/02/11 07:48:31;;;;;;;8.45;3.40;;;6.50;78.10;;;;;;4976569;28;20043;-73
2024/02/11 07:50:56;;;;;;;10.65;5.25;;;6.50;77.40;;;;;;4976667;28;20538;-74
2024/02/11 07:53:22;;;;;;;9.38;4.70;;;6.50;78.20;;;;;;4976699;28;20049;-73
2024/02/11 07:55:48;;;;;;;11.80;4.80;;;6.50;78.20;;;;;;4976726;28;20038;-74
2024/02/11 07:58:13;;;;;;;11.07;4.70;;;6.40;78.30;;;;;;4976617;28;20045;-73
2024/02/11 08:00:40;;;;;;;11.43;4.15;;;6.40;78.10;;;;;;4977888;28;20110;-74
2024/02/11 08:03:08;;;;;;;6.03;3.60;;;6.50;78.30;;;;;;4977943;28;20034;-73
2024/02/11 08:05:35;;;;;;;10.50;4.72;;;6.50;78.00;;;;;;4976305;28;20476;-73
2024/02/11 08:08:00;;;;;;;8.35;4.43;;;6.50;78.00;;;;;;4976329;28;20050;-73
2024/02/11 08:10:26;;;;;;;8.93;4.00;;;6.60;78.00;;;;;;4974252;28;20023;-73
2024/02/11 08:12:52;;;;;;;7.57;4.38;;;6.60;78.00;;;;;;4976224;28;20035;-73
2024/02/11 08:15:18;;;;;;;8.57;3.85;;;6.60;77.60;;;;;;4976258;28;20043;-74
2024/02/11 08:17:44;;;;;;;7.25;3.45;;;6.70;77.40;;;;;;4959072;28;20506;-73
2024/02/11 08:20:12;;;;;;;12.52;3.80;;;6.70;76.90;;;;;;4976082;28;20039;-73
2024/02/11 08:22:37;;;;;;;8.32;4.40;;;6.70;77.20;;;;;;4976145;28;20054;-73
2024/02/11 08:25:08;;;;;;;8.63;3.60;;;6.70;77.10;;;;;;4975932;28;20136;-72
2024/02/11 08:27:35;;;;;;;7.72;4.15;;;6.80;76.40;;;;;;4975579;28;20562;-73
2024/02/11 08:30:01;;;;;;;7.65;3.85;;;6.70;77.70;;;;;;4979480;28;20376;-74
2024/02/11 08:32:26;;;;;;;7.32;3.83;;;6.70;76.60;;;;;;4958666;28;20023;-74
2024/02/11 08:34:52;;;;;;;5.65;3.70;;;6.80;76.90;;;;;;4958769;28;20122;-73
2024/02/11 08:37:17;;;;;;;7.90;3.60;;;6.80;76.40;;;;;;4976091;28;20053;-74
2024/02/11 08:39:43;;;;;;;9.13;3.40;;;6.90;76.20;;;;;;4975793;28;20027;-73
2024/02/11 08:42:09;;;;;;;7.60;3.10;;;6.90;75.60;;;;;;4964631;28;20027;-74
2024/02/11 08:44:35;;;;;;;5.53;3.28;;;6.80;75.90;;;;;;4956162;28;20024;-73
2024/02/11 08:47:02;;;;;;;8.77;3.65;;;6.80;75.50;;;;;;4956458;29;20050;-74
2024/02/11 08:49:28;;;;;;;8.50;3.60;;;6.80;76.40;;;;;;4956429;29;20035;-73
2024/02/11 08:51:55;;;;;;;7.63;3.70;;;6.80;76.30;;;;;;4956190;29;20081;-73
2024/02/11 08:54:20;;;;;;;6.35;4.10;;;6.80;75.70;;;;;;4956071;29;20113;-73
2024/02/11 08:56:47;;;;;;;9.20;2.83;;;6.80;76.50;;;;;;4956165;29;20062;-73
2024/02/11 08:59:13;;;;;;;7.07;2.42;;;6.90;75.60;;;;;;4973944;28;20033;-73
2024/02/11 09:01:40;;;;;;;6.53;3.30;;;6.90;75.80;;;;;;4975121;28;20396;-73
2024/02/11 09:04:10;;;;;;;4.65;3.42;;;6.90;76.00;;;;;;4974925;28;20027;-73
2024/02/11 09:06:35;;;;;;;10.90;4.18;;;6.90;75.70;;;;;;4957990;28;20129;-74
2024/02/11 09:09:01;;;;;;;5.60;3.65;;;7.00;76.00;;;;;;4975267;28;20504;-74
2024/02/11 09:11:27;;;;;;;6.10;3.10;;;7.00;76.00;;;;;;4958129;28;20019;-74
2024/02/11 09:13:53;;;;;;;5.97;2.90;;;7.10;76.60;;;;;;4962038;28;20031;-82
2024/02/11 09:16:19;;;;;;;6.30;2.97;;;7.10;75.40;;;;;;4974870;28;20047;-78
2024/02/11 09:18:45;;;;;;;4.18;2.95;;;7.20;75.30;;;;;;4958748;28;20033;-76
2024/02/11 09:21:11;;;;;;;8.75;3.67;;;7.20;75.50;;;;;;4958313;28;20109;-77
2024/02/11 09:23:37;;;;;;;5.63;2.70;;;7.40;75.20;;;;;;4958777;28;20038;-78
2024/02/11 09:26:02;;;;;;;4.20;2.70;;;7.40;74.30;;;;;;4976266;28;20031;-77
2024/02/11 09:28:29;;;;;;;6.00;2.97;;;7.40;74.50;;;;;;4974120;28;20495;-78
2024/02/11 09:30:55;;;;;;;4.47;3.05;;;7.40;74.40;;;;;;4957884;28;20136;-77
2024/02/11 09:33:21;;;;;;;6.05;3.13;;;7.50;74.90;;;;;;4957659;28;20038;-77
2024/02/11 09:35:46;;;;;;;5.50;3.20;;;7.60;73.80;;;;;;4957594;28;20022;-78
2024/02/11 09:38:14;;;;;;;7.85;3.60;;;7.50;73.50;;;;;;4957707;28;20026;-77
2024/02/11 09:40:39;;;;;;;10.88;3.95;;;7.40;73.80;;;;;;4957695;28;20087;-76
2024/02/11 09:43:05;;;;;;;6.28;2.95;;;7.40;74.30;;;;;;4974628;28;20490;-74
2024/02/11 09:45:34;;;;;;;4.53;2.90;;;7.50;73.80;;;;;;4974441;28;20042;-74
2024/02/11 09:48:04;;;;;;;8.23;2.72;;;7.50;73.80;;;;;;4974435;28;20038;-73
2024/02/11 09:50:29;;;;;;;3.90;2.33;;;7.40;73.60;;;;;;4974397;28;20015;-74
2024/02/11 09:52:55;;;;;;;6.88;2.53;;;7.50;74.40;;;;;;4957201;28;20086;-73
2024/02/11 09:55:21;;;;;;;5.45;2.35;;;7.50;73.50;;;;;;4956717;28;20023;-73
2024/02/11 09:57:46;;;;;;;6.63;2.40;;;7.60;73.40;;;;;;4957271;28;20077;-75
2024/02/11 10:00:13;;;;;;;5.13;2.40;;;7.60;73.50;;;;;;4973064;28;20019;-73
2024/02/11 10:02:39;;;;;;;5.80;2.47;;;7.50;73.40;;;;;;4957056;28;20026;-75
2024/02/11 10:05:09;;;;;;;5.57;2.53;;;7.50;74.10;;;;;;4973050;28;20575;-76
2024/02/11 10:07:41;;;;;;;5.00;2.50;;;7.60;74.00;;;;;;4974266;28;20105;-74
2024/02/11 10:10:07;;;;;;;2.47;2.15;;;7.60;74.10;;;;;;4957035;28;20035;-75
2024/02/11 10:12:33;;;;;;;3.72;2.30;;;7.50;74.80;;;;;;4956696;28;20027;-75
2024/02/11 10:14:59;;;;;;;4.40;2.53;;;7.40;75.00;;;;;;4973910;28;20066;-74
2024/02/11 10:17:25;;;;;;;7.53;2.70;;;7.40;74.90;;;;;;4957101;28;20086;-73
2024/02/11 10:19:51;;;;;;;3.80;2.22;;;7.50;75.50;;;;;;4974135;28;20023;-73
2024/02/11 10:22:21;;;;;;;4.00;2.08;;;7.50;75.30;;;;;;4974046;28;20030;-74
2024/02/11 10:24:49;;;;;;;5.47;2.53;;;7.40;75.70;;;;;;4972688;28;20023;-74
2024/02/11 10:27:17;;;;;;;3.50;2.15;;;7.50;74.90;;;;;;4973853;28;20157;-75
2024/02/11 10:29:44;;;;;;;4.13;2.75;;;7.60;75.10;;;;;;4974044;28;20486;-74
2024/02/11 10:32:13;;;;;;;4.07;2.08;;;7.70;75.30;;;;;;4956759;28;20097;-73
2024/02/11 10:34:41;;;;;;;3.45;2.47;;;7.80;74.60;;;;;;4959002;28;20153;-74
2024/02/11 10:37:07;;;;;;;3.85;2.30;;;7.80;73.80;;;;;;4960755;28;20023;-73
2024/02/11 10:39:37;;;;;;;4.88;2.70;;;7.70;74.60;;;;;;4960887;28;20050;-74
2024/02/11 10:42:03;;;;;;;3.67;1.95;;;7.70;74.80;;;;;;4980060;28;20066;-74
2024/02/11 10:44:29;;;;;;;4.47;2.28;;;7.60;74.00;;;;;;4960722;28;20027;-74
2024/02/11 10:46:56;;;;;;;3.40;2.35;;;7.60;74.40;;;;;;4977799;28;20025;-73
2024/02/11 10:49:21;;;;;;;3.75;2.33;;;7.40;75.20;;;;;;4960485;28;20038;-73
2024/02/11 10:51:52;;;;;;;2.80;1.80;;;7.40;76.30;;;;;;4960572;28;20019;-74
2024/02/11 10:54:18;;;;;;;3.20;1.70;;;7.40;75.40;;;;;;4977956;28;20027;-75
2024/02/11 10:56:44;;;;;;;2.22;1.90;;;7.40;75.70;;;;;;4976500;28;20122;-73
2024/02/11 10:59:23;;;;;;;3.35;2.33;;;7.40;75.40;;;;;;4977614;28;20428;-74
2024/02/11 11:01:50;;;;;;;3.78;1.80;;;7.50;75.80;;;;;;4977743;28;20089;-74
2024/02/11 11:04:21;;;;;;;2.83;1.90;;;7.50;74.90;;;;;;4977603;28;20069;-73
2024/02/11 11:06:49;;;;;;;2.20;1.90;;;7.60;75.40;;;;;;4977377;28;20030;-75
2024/02/11 11:09:15;;;;;;;3.25;1.95;;;7.70;75.50;;;;;;4977355;28;20035;-77
2024/02/11 11:11:41;;;;;;;2.88;1.90;;;7.80;74.90;;;;;;4977322;28;20027;-75
2024/02/11 11:14:08;;;;;;;2.13;1.30;;;8.00;73.70;;;;;;4977664;28;20031;-74
2024/02/11 11:16:41;;;;;;;2.08;1.40;;;8.40;72.40;;;;;;4977222;28;20130;-75
2024/02/11 11:19:13;;;;;;;2.25;1.42;;;8.80;70.70;;;;;;4959858;28;20065;-74
2024/02/11 11:22:01;;;;;;;2.83;1.40;;;9.10;70.80;;;;;;4977144;28;20453;-77
2024/02/11 11:24:26;;;;;;;3.15;1.45;;;9.30;69.50;;;;;;4977521;28;20488;-74
2024/02/11 11:26:53;;;;;;;2.90;1.20;;;9.40;68.60;;;;;;4977052;28;20058;-77
2024/02/11 11:29:24;;;;;;;2.95;1.40;;;9.00;68.10;;;;;;4977359;28;20031;-73
2024/02/11 11:31:54;;;;;;;4.07;1.40;;;8.90;69.50;;;;;;4976465;28;20034;-74
2024/02/11 11:34:20;;;;;;;1.80;1.30;;;8.90;70.10;;;;;;4976896;28;20083;-72
2024/02/11 11:36:45;;;;;;;1.45;1.20;;;9.10;70.20;;;;;;4976846;28;20050;-73
2024/02/11 11:39:14;;;;;;;2.78;1.38;;;9.40;68.40;;;;;;4977090;28;20027;-73
2024/02/11 11:41:39;;;;;;;4.70;1.30;;;9.40;68.30;;;;;;4976860;28;20169;-74
2024/02/11 11:44:05;;;;;;;1.92;1.20;;;9.10;67.50;;;;;;4977072;28;20442;-74
2024/02/11 11:46:31;;;;;;;2.78;1.40;;;9.00;68.20;;;;;;4976659;28;20026;-74
2024/02/11 11:48:57;;;;;;;3.08;1.58;;;9.00;68.50;;;;;;4976752;28;20049;-74
2024/02/11 11:51:23;;;;;;;3.45;1.48;;;9.10;68.20;;;;;;4976623;28;20464;-73
2024/02/11 11:53:51;;;;;;;3.28;1.40;;;9.10;68.50;;;;;;4959475;28;20077;-73
2024/02/11 11:56:18;;;;;;;2.83;1.60;;;9.00;67.30;;;;;;4959269;28;20031;-73
2024/02/11 11:58:46;;;;;;;6.85;2.00;;;9.00;67.10;;;;;;4976380;28;20047;-74
2024/02/11 12:01:14;;;;;;;5.68;1.67;;;8.90;67.40;;;;;;4976140;28;20065;-73
2024/02/11 12:03:40;;;;;;;3.25;1.30;;;8.80;66.30;;;;;;4976640;28;20066;-73
2024/02/11 12:06:08;;;;;;;2.38;1.00;;;9.00;65.90;;;;;;4978237;28;20027;-74
2024/02/11 12:08:34;;;;;;;6.38;1.73;;;9.10;64.50;;;;;;4975770;28;20070;-73
2024/02/11 12:11:03;;;;;;;5.20;1.42;;;9.20;63.90;;;;;;4976794;28;20047;-73
2024/02/11 12:13:32;;;;;;;5.60;1.63;;;9.20;64.90;;;;;;4958880;28;20034;-73
2024/02/11 12:16:01;;;;;;;3.53;1.75;;;9.10;65.30;;;;;;4958931;28;20046;-73
2024/02/11 12:18:26;;;;;;;3.72;1.60;;;9.20;64.90;;;;;;4958982;28;20035;-73
2024/02/11 12:20:55;;;;;;;3.70;1.05;;;9.20;65.40;;;;;;4958575;28;20558;-72
2024/02/11 12:23:23;;;;;;;5.63;1.52;;;9.10;65.00;;;;;;4958551;28;20411;-73
2024/02/11 12:25:56;;;;;;;4.15;1.63;;;8.90;65.60;;;;;;4975838;28;20035;-72
2024/02/11 12:28:30;;;;;;;3.08;1.17;;;8.90;65.40;;;;;;4975828;28;20189;-73
2024/02/11 12:31:08;;;;;;;3.75;1.00;;;8.90;66.20;;;;;;4974721;28;20057;-73
2024/02/11 12:33:42;;;;;;;3.55;1.38;;;8.90;64.80;;;;;;4975810;28;20105;-74
2024/02/11 12:36:19;;;;;;;3.00;1.40;;;8.90;64.60;;;;;;4975906;28;20030;-74
2024/02/11 12:38:52;;;;;;;1.92;0.93;;;8.90;64.10;;;;;;4961692;28;20054;-74
2024/02/11 12:41:19;;;;;;;7.70;2.17;;;8.80;65.50;;;;;;4958904;28;20077;-74
2024/02/11 12:43:46;;;;;;;6.82;1.92;;;8.90;66.90;;;;;;4958687;28;20109;-75
2024/02/11 12:46:12;;;;;;;5.07;1.20;;;9.00;64.50;;;;;;4958611;28;20029;-74
2024/02/11 12:48:40;;;;;;;5.72;1.48;;;9.20;64.30;;;;;;4958356;28;20035;-76
2024/02/11 12:51:10;;;;;;;5.78;1.23;;;9.40;62.10;;;;;;4974411;28;20380;-74
2024/02/11 12:53:38;;;;;;;5.32;1.70;;;9.50;63.10;;;;;;4958235;28;20037;-74
2024/02/11 12:56:05;;;;;;;4.50;1.10;;;9.70;62.80;;;;;;4958044;28;20022;-74